WetterOnline ( http://www.wetteronline.de )

Wetter aktuell Salzburg

Aktuelles Wetter: Salzburg Flughafen (450m)

6-stündlich | Neueste Meldungen
Ortszeit Temperatur Wetter
Di, 20.02. 13:00 0.6° C bewölkt
Di, 20.02. 7:00 -2.4° C leichter Schneefall
Di, 20.02. 1:00 -2.0° C leichte Schneeschauer
Mo, 19.02. 19:00 -1.7° C bedeckt
Mo, 19.02. 13:00 -1.5° C bedeckt
Mo, 19.02. 7:00 -5.1° C bewölkt
Mo, 19.02. 1:00 -3.8° C fast wolkenlos
So, 18.02. 19:00 0.6° C bewölkt
Ortszeit Temperatur Wetter
Di, 20.02. 18:20 -1° C leichter Schneefall
Di, 20.02. 18:00 -0.9° C leichter Schneefall
Di, 20.02. 17:50 -1° C leichter Schneefall
Di, 20.02. 17:20 0° C leichter Schneefall
Di, 20.02. 17:00 0.1° C leichter Schneefall
Di, 20.02. 16:50 0° C leichter Schneefall
Di, 20.02. 16:20 0° C bewölkt
Di, 20.02. 16:00 0.5° C bedeckt
Di, 20.02. 15:20 1° C bewölkt
Di, 20.02. 15:00 1.0° C bedeckt
Ortszeit Relative Feuchte Sichtweite
Di, 20.02. 13:00 79% 8 km
Di, 20.02. 7:00 94% 1.9 km
Di, 20.02. 1:00 91% 4.9 km
Mo, 19.02. 19:00 84% 11 km
Mo, 19.02. 13:00 77% 11 km
Mo, 19.02. 7:00 94% 12 km
Mo, 19.02. 1:00 95% 5.0 km
So, 18.02. 19:00 81% 10 km
Ortszeit Relative Feuchte Sichtweite
Di, 20.02. 18:20 93% 2.5 km
Di, 20.02. 18:00 93% 2.9 km
Di, 20.02. 17:50 93% 2.5 km
Di, 20.02. 17:20 86% 3.5 km
Di, 20.02. 17:00 81% 7 km
Di, 20.02. 16:50 80% >10 km
Di, 20.02. 16:20 80% >10 km
Di, 20.02. 16:00 78% 9 km
Di, 20.02. 15:20 75% >10 km
Di, 20.02. 15:00 79% 9 km
Ortszeit Niederschlagsmenge Niederschlagsart
Di, 20.02. 13:00 0.6 l/m2 in 6 Std. -
Di, 20.02. 7:00 3 l/m2 in 12 Std. -
Di, 20.02. 1:00 0.1 l/m2 in 6 Std. -
Mo, 19.02. 19:00 0.1 l/m2 in 12 Std. -
Mo, 19.02. 13:00 0.1 l/m2 in 6 Std. -
Mo, 19.02. 7:00 0.1 l/m2 in 12 Std. -
Mo, 19.02. 1:00 0.1 l/m2 in 6 Std. -
So, 18.02. 19:00 0.1 l/m2 in 12 Std. -
Ortszeit Niederschlagsmenge Niederschlagsart
Di, 20.02. 18:20 keine Meldung -
Di, 20.02. 18:00 0.3 l/m2 in 1 Std. -
Di, 20.02. 17:50 keine Meldung -
Di, 20.02. 17:20 keine Meldung -
Di, 20.02. 17:00 0.0 l/m2 in 1 Std. -
Di, 20.02. 16:50 keine Meldung -
Di, 20.02. 16:20 keine Meldung -
Di, 20.02. 16:00 0.0 l/m2 in 1 Std. -
Di, 20.02. 15:20 keine Meldung -
Di, 20.02. 15:00 0.0 l/m2 in 1 Std. -
Ortszeit Stärke Spitze Richtung
km/h Bft. km/h Grad Sektor
Di, 20.02. 13:00 11 2 - 320° NW
Di, 20.02. 7:00 4 1 - - -
Di, 20.02. 1:00 7 2 - - -
Mo, 19.02. 19:00 7 2 - - -
Mo, 19.02. 13:00 11 2 - - -
Mo, 19.02. 7:00 7 2 - - -
Mo, 19.02. 1:00 4 1 - - -
So, 18.02. 19:00 11 2 - - -
Ortszeit Stärke Spitze Richtung
km/h Bft. km/h Grad Sektor
Di, 20.02. 18:20 15 3 - 310° NW
Di, 20.02. 18:00 14 3 - 310° NW
Di, 20.02. 17:50 15 3 - 310° NW
Di, 20.02. 17:20 15 3 - 300° NW
Di, 20.02. 17:00 14 3 - 300° NW
Di, 20.02. 16:50 15 3 - 300° NW
Di, 20.02. 16:20 15 3 - 310° NW
Di, 20.02. 16:00 18 3 - 310° NW
Di, 20.02. 15:20 15 3 - 290° W
Di, 20.02. 15:00 14 3 - 310° NW
Ortszeit Untergrenze Bedeckung Gattung
total tief tief mittel hoch
Di, 20.02. 13:00 360 m 7/8 6/8 St - -
Di, 20.02. 7:00 240 m 8/8 5/8 St - -
Di, 20.02. 1:00 780 m 8/8 5/8 - - -
Mo, 19.02. 19:00 360 m 8/8 8/8 St - -
Mo, 19.02. 13:00 360 m 8/8 7/8 St - -
Mo, 19.02. 7:00 240 m 7/8 6/8 Sc - -
Mo, 19.02. 1:00 240 m 1/8 1/8 - - -
So, 18.02. 19:00 540 m 7/8 5/8 Sc - -
Ortszeit Bedeckungsgrad in Achtel und Wolkenuntergrenze
Di, 20.02. 18:20 1-2(210m) 5-7(360m) 5-7(600m)
Di, 20.02. 18:00 1(210m) 7(450m)
Di, 20.02. 17:50 1-2(210m) 5-7(450m)
Di, 20.02. 17:20 1-2(210m) 5-7(540m)
Di, 20.02. 17:00 1(360m) 7(750m)
Di, 20.02. 16:50 1-2(360m) 5-7(750m)
Di, 20.02. 16:20 1-2(450m) 5-7(750m)
Di, 20.02. 16:00 1(450m) 7(750m)
Di, 20.02. 15:20 1-2(450m) 5-7(750m)
Di, 20.02. 15:00 1(450m) 7(750m)
Ortszeit Luftdruck NN (hPa) Tendenz (hPa in 3 Std.)
Di, 20.02. 13:00 1016 - 0,5
Di, 20.02. 7:00 1017 + 0,2
Di, 20.02. 1:00 1018 - 0,8
Mo, 19.02. 19:00 1019 - 0,3
Mo, 19.02. 13:00 1021 - 0,6
Mo, 19.02. 7:00 1023 - 0,7
Mo, 19.02. 1:00 1025 - 1,5
So, 18.02. 19:00 1027 - 0,2
Ortszeit Luftdruck NN (hPa) Tendenz (hPa in 3 Std.)
Di, 20.02. 18:20 1014 keine Meldung
Di, 20.02. 18:00 1016 + 1,0
Di, 20.02. 17:50 1014 keine Meldung
Di, 20.02. 17:20 1013 keine Meldung
Di, 20.02. 17:00 1016 + 0,2
Di, 20.02. 16:50 1013 keine Meldung
Di, 20.02. 16:20 1013 keine Meldung
Di, 20.02. 16:00 1015 - 0,5
Di, 20.02. 15:20 1013 keine Meldung
Di, 20.02. 15:00 1015 - 0,6
Ortszeit Schneehöhe (cm)
Di, 20.02. 13:00 -
Di, 20.02. 7:00 1
Di, 20.02. 1:00 0
Mo, 19.02. 19:00 -
Mo, 19.02. 13:00 -
Mo, 19.02. 7:00 0
Mo, 19.02. 1:00 0
So, 18.02. 19:00 -
Ortszeit Schneehöhe (cm)
Di, 20.02. 18:20 -
Di, 20.02. 18:00 -
Di, 20.02. 17:50 -
Di, 20.02. 17:20 -
Di, 20.02. 17:00 -
Di, 20.02. 16:50 -
Di, 20.02. 16:20 -
Di, 20.02. 16:00 -
Di, 20.02. 15:20 -
Di, 20.02. 15:00 -
Link zu dieser Seite / Seite empfehlen

Das Wetter in ...